<?xml version="1.0" encoding="UTF-8"?>
<gpx creator="Wikiloc - https://www.wikiloc.com" version="1.1" xmlns="http://www.topografix.com/GPX/1/1" xmlns:xsi="http://www.w3.org/2001/XMLSchema-instance" xsi:schemaLocation="http://www.topografix.com/GPX/1/1 http://www.topografix.com/GPX/1/1/gpx.xsd">
  <trk>
    <name>PR-BA 180 'Senda de los Embalses' (Orellana-Puebla de Alcocer)</name>
    <cmt>Más información en www.fexme.com</cmt>
    <desc>Más información en www.fexme.com</desc>
    <trkseg>
      <trkpt lat="38.994660" lon="-5.525990">
        <ele>320.3</ele>
        <time>2010-02-14T08:38:30Z</time>
      </trkpt>
      <trkpt lat="38.994640" lon="-5.525770">
        <ele>320.7</ele>
        <time>2010-02-14T08:44:33Z</time>
      </trkpt>
      <trkpt lat="38.994370" lon="-5.525430">
        <ele>322.7</ele>
        <time>2010-02-14T08:44:46Z</time>
      </trkpt>
      <trkpt lat="38.994240" lon="-5.524700">
        <ele>325.6</ele>
        <time>2010-02-14T08:44:58Z</time>
      </trkpt>
      <trkpt lat="38.994310" lon="-5.523770">
        <ele>322.2</ele>
        <time>2010-02-14T08:45:10Z</time>
      </trkpt>
      <trkpt lat="38.994620" lon="-5.523520">
        <ele>321.2</ele>
        <time>2010-02-14T08:45:22Z</time>
      </trkpt>
      <trkpt lat="38.995650" lon="-5.523610">
        <ele>321.7</ele>
        <time>2010-02-14T08:45:36Z</time>
      </trkpt>
      <trkpt lat="38.995960" lon="-5.523870">
        <ele>321.2</ele>
        <time>2010-02-14T08:45:42Z</time>
      </trkpt>
      <trkpt lat="38.996770" lon="-5.525030">
        <ele>321.7</ele>
        <time>2010-02-14T08:45:57Z</time>
      </trkpt>
      <trkpt lat="38.997550" lon="-5.525830">
        <ele>320.7</ele>
        <time>2010-02-14T08:46:08Z</time>
      </trkpt>
      <trkpt lat="38.997670" lon="-5.526470">
        <ele>320.3</ele>
        <time>2010-02-14T08:46:14Z</time>
      </trkpt>
      <trkpt lat="38.997410" lon="-5.528010">
        <ele>327.0</ele>
        <time>2010-02-14T08:46:25Z</time>
      </trkpt>
      <trkpt lat="38.997450" lon="-5.527920">
        <ele>332.3</ele>
        <time>2010-02-14T08:46:42Z</time>
      </trkpt>
      <trkpt lat="38.997490" lon="-5.528270">
        <ele>332.8</ele>
        <time>2010-02-14T08:46:52Z</time>
      </trkpt>
      <trkpt lat="39.000490" lon="-5.531190">
        <ele>341.9</ele>
        <time>2010-02-14T08:48:35Z</time>
      </trkpt>
      <trkpt lat="39.004510" lon="-5.532630">
        <ele>361.1</ele>
        <time>2010-02-14T08:49:56Z</time>
      </trkpt>
      <trkpt lat="39.004960" lon="-5.532560">
        <ele>359.2</ele>
        <time>2010-02-14T08:50:05Z</time>
      </trkpt>
      <trkpt lat="39.005290" lon="-5.532080">
        <ele>352.5</ele>
        <time>2010-02-14T08:50:15Z</time>
      </trkpt>
      <trkpt lat="39.005940" lon="-5.532160">
        <ele>345.7</ele>
        <time>2010-02-14T08:50:30Z</time>
      </trkpt>
      <trkpt lat="39.006160" lon="-5.532240">
        <ele>342.4</ele>
        <time>2010-02-14T08:50:34Z</time>
      </trkpt>
      <trkpt lat="39.006370" lon="-5.532620">
        <ele>338.5</ele>
        <time>2010-02-14T08:50:42Z</time>
      </trkpt>
      <trkpt lat="39.006360" lon="-5.533070">
        <ele>336.1</ele>
        <time>2010-02-14T08:50:50Z</time>
      </trkpt>
      <trkpt lat="39.006560" lon="-5.533180">
        <ele>335.6</ele>
        <time>2010-02-14T08:50:56Z</time>
      </trkpt>
      <trkpt lat="39.007020" lon="-5.533250">
        <ele>336.1</ele>
        <time>2010-02-14T08:51:02Z</time>
      </trkpt>
      <trkpt lat="39.007770" lon="-5.533110">
        <ele>335.2</ele>
        <time>2010-02-14T08:51:15Z</time>
      </trkpt>
      <trkpt lat="39.008170" lon="-5.533200">
        <ele>334.7</ele>
        <time>2010-02-14T08:51:24Z</time>
      </trkpt>
      <trkpt lat="39.008210" lon="-5.533450">
        <ele>334.2</ele>
        <time>2010-02-14T08:51:31Z</time>
      </trkpt>
      <trkpt lat="39.008660" lon="-5.533600">
        <ele>337.6</ele>
        <time>2010-02-14T08:51:39Z</time>
      </trkpt>
      <trkpt lat="39.009110" lon="-5.533580">
        <ele>345.7</ele>
        <time>2010-02-14T08:51:44Z</time>
      </trkpt>
      <trkpt lat="39.009190" lon="-5.533810">
        <ele>370.2</ele>
        <time>2010-02-14T08:51:48Z</time>
      </trkpt>
      <trkpt lat="39.010150" lon="-5.533740">
        <ele>393.3</ele>
        <time>2010-02-14T08:52:02Z</time>
      </trkpt>
      <trkpt lat="39.011370" lon="-5.533450">
        <ele>369.3</ele>
        <time>2010-02-14T08:52:20Z</time>
      </trkpt>
      <trkpt lat="39.011580" lon="-5.533730">
        <ele>370.2</ele>
        <time>2010-02-14T08:52:26Z</time>
      </trkpt>
      <trkpt lat="39.011640" lon="-5.534030">
        <ele>369.8</ele>
        <time>2010-02-14T08:52:30Z</time>
      </trkpt>
      <trkpt lat="39.011510" lon="-5.533790">
        <ele>365.4</ele>
        <time>2010-02-14T08:52:53Z</time>
      </trkpt>
      <trkpt lat="39.011650" lon="-5.533610">
        <ele>365.9</ele>
        <time>2010-02-14T08:52:59Z</time>
      </trkpt>
      <trkpt lat="39.012900" lon="-5.534060">
        <ele>370.7</ele>
        <time>2010-02-14T08:53:16Z</time>
      </trkpt>
      <trkpt lat="39.013350" lon="-5.534060">
        <ele>371.2</ele>
        <time>2010-02-14T08:53:25Z</time>
      </trkpt>
      <trkpt lat="39.014740" lon="-5.533440">
        <ele>372.2</ele>
        <time>2010-02-14T08:58:23Z</time>
      </trkpt>
      <trkpt lat="39.016230" lon="-5.533590">
        <ele>369.8</ele>
        <time>2010-02-14T08:58:47Z</time>
      </trkpt>
      <trkpt lat="39.018880" lon="-5.534610">
        <ele>369.3</ele>
        <time>2010-02-14T08:59:25Z</time>
      </trkpt>
      <trkpt lat="39.019830" lon="-5.534810">
        <ele>368.8</ele>
        <time>2010-02-14T08:59:38Z</time>
      </trkpt>
      <trkpt lat="39.022250" lon="-5.534990">
        <ele>373.1</ele>
        <time>2010-02-14T09:00:11Z</time>
      </trkpt>
      <trkpt lat="39.024840" lon="-5.535620">
        <ele>371.7</ele>
        <time>2010-02-14T09:00:50Z</time>
      </trkpt>
      <trkpt lat="39.026790" lon="-5.536210">
        <ele>372.2</ele>
        <time>2010-02-14T09:03:32Z</time>
      </trkpt>
      <trkpt lat="39.028600" lon="-5.536920">
        <ele>362.6</ele>
        <time>2010-02-14T09:04:03Z</time>
      </trkpt>
      <trkpt lat="39.029270" lon="-5.537030">
        <ele>354.9</ele>
        <time>2010-02-14T09:04:20Z</time>
      </trkpt>
      <trkpt lat="39.029690" lon="-5.536870">
        <ele>365.9</ele>
        <time>2010-02-14T09:05:18Z</time>
      </trkpt>
      <trkpt lat="39.030370" lon="-5.536020">
        <ele>365.4</ele>
        <time>2010-02-14T09:06:19Z</time>
      </trkpt>
      <trkpt lat="39.031910" lon="-5.535160">
        <ele>366.4</ele>
        <time>2010-02-14T09:06:49Z</time>
      </trkpt>
      <trkpt lat="39.032680" lon="-5.534560">
        <ele>369.3</ele>
        <time>2010-02-14T09:07:02Z</time>
      </trkpt>
      <trkpt lat="39.034630" lon="-5.534400">
        <ele>375.5</ele>
        <time>2010-02-14T09:07:28Z</time>
      </trkpt>
      <trkpt lat="39.035290" lon="-5.534050">
        <ele>378.9</ele>
        <time>2010-02-14T09:07:39Z</time>
      </trkpt>
      <trkpt lat="39.036690" lon="-5.533800">
        <ele>375.5</ele>
        <time>2010-02-14T09:08:03Z</time>
      </trkpt>
      <trkpt lat="39.036560" lon="-5.533800">
        <ele>374.6</ele>
        <time>2010-02-14T09:09:13Z</time>
      </trkpt>
      <trkpt lat="39.037600" lon="-5.533140">
        <ele>381.8</ele>
        <time>2010-02-14T09:12:17Z</time>
      </trkpt>
      <trkpt lat="39.039520" lon="-5.531060">
        <ele>394.3</ele>
        <time>2010-02-14T09:14:30Z</time>
      </trkpt>
      <trkpt lat="39.040650" lon="-5.529430">
        <ele>407.7</ele>
        <time>2010-02-14T09:15:03Z</time>
      </trkpt>
      <trkpt lat="39.041570" lon="-5.527790">
        <ele>414.5</ele>
        <time>2010-02-14T09:17:57Z</time>
      </trkpt>
      <trkpt lat="39.041690" lon="-5.527010">
        <ele>423.6</ele>
        <time>2010-02-14T09:18:11Z</time>
      </trkpt>
      <trkpt lat="39.042080" lon="-5.526500">
        <ele>439.9</ele>
        <time>2010-02-14T09:18:25Z</time>
      </trkpt>
      <trkpt lat="39.042430" lon="-5.526200">
        <ele>447.6</ele>
        <time>2010-02-14T09:18:38Z</time>
      </trkpt>
      <trkpt lat="39.042950" lon="-5.525980">
        <ele>455.8</ele>
        <time>2010-02-14T09:18:49Z</time>
      </trkpt>
      <trkpt lat="39.043770" lon="-5.525870">
        <ele>462.0</ele>
        <time>2010-02-14T09:19:19Z</time>
      </trkpt>
      <trkpt lat="39.044090" lon="-5.525510">
        <ele>462.0</ele>
        <time>2010-02-14T09:20:42Z</time>
      </trkpt>
      <trkpt lat="39.044400" lon="-5.525620">
        <ele>459.2</ele>
        <time>2010-02-14T09:22:01Z</time>
      </trkpt>
      <trkpt lat="39.044150" lon="-5.525560">
        <ele>457.7</ele>
        <time>2010-02-14T09:22:19Z</time>
      </trkpt>
      <trkpt lat="39.044190" lon="-5.525320">
        <ele>462.0</ele>
        <time>2010-02-14T09:22:38Z</time>
      </trkpt>
      <trkpt lat="39.044120" lon="-5.525580">
        <ele>467.3</ele>
        <time>2010-02-14T09:23:20Z</time>
      </trkpt>
      <trkpt lat="39.044130" lon="-5.525490">
        <ele>467.8</ele>
        <time>2010-02-14T09:24:01Z</time>
      </trkpt>
      <trkpt lat="39.044230" lon="-5.525660">
        <ele>465.9</ele>
        <time>2010-02-14T09:24:10Z</time>
      </trkpt>
      <trkpt lat="39.044300" lon="-5.525590">
        <ele>463.5</ele>
        <time>2010-02-14T09:24:18Z</time>
      </trkpt>
      <trkpt lat="39.044140" lon="-5.525460">
        <ele>463.5</ele>
        <time>2010-02-14T09:27:45Z</time>
      </trkpt>
      <trkpt lat="39.044230" lon="-5.525110">
        <ele>466.9</ele>
        <time>2010-02-14T09:27:55Z</time>
      </trkpt>
      <trkpt lat="39.043680" lon="-5.524160">
        <ele>472.6</ele>
        <time>2010-02-14T09:28:31Z</time>
      </trkpt>
      <trkpt lat="39.043570" lon="-5.523350">
        <ele>477.4</ele>
        <time>2010-02-14T09:29:25Z</time>
      </trkpt>
      <trkpt lat="39.043530" lon="-5.523510">
        <ele>476.5</ele>
        <time>2010-02-14T09:30:57Z</time>
      </trkpt>
      <trkpt lat="39.043000" lon="-5.523590">
        <ele>471.7</ele>
        <time>2010-02-14T09:32:21Z</time>
      </trkpt>
      <trkpt lat="39.041880" lon="-5.524100">
        <ele>464.5</ele>
        <time>2010-02-14T09:32:36Z</time>
      </trkpt>
      <trkpt lat="39.041420" lon="-5.524160">
        <ele>460.6</ele>
        <time>2010-02-14T09:32:42Z</time>
      </trkpt>
      <trkpt lat="39.040030" lon="-5.523950">
        <ele>457.2</ele>
        <time>2010-02-14T09:33:05Z</time>
      </trkpt>
      <trkpt lat="39.039650" lon="-5.524090">
        <ele>452.0</ele>
        <time>2010-02-14T09:35:13Z</time>
      </trkpt>
      <trkpt lat="39.039940" lon="-5.524030">
        <ele>457.7</ele>
        <time>2010-02-14T09:37:00Z</time>
      </trkpt>
      <trkpt lat="39.039780" lon="-5.523900">
        <ele>457.2</ele>
        <time>2010-02-14T09:37:10Z</time>
      </trkpt>
      <trkpt lat="39.039110" lon="-5.521990">
        <ele>450.0</ele>
        <time>2010-02-14T09:38:41Z</time>
      </trkpt>
      <trkpt lat="39.038850" lon="-5.521540">
        <ele>453.9</ele>
        <time>2010-02-14T09:38:54Z</time>
      </trkpt>
      <trkpt lat="39.038620" lon="-5.521360">
        <ele>456.8</ele>
        <time>2010-02-14T09:39:03Z</time>
      </trkpt>
      <trkpt lat="39.038420" lon="-5.521460">
        <ele>457.2</ele>
        <time>2010-02-14T09:39:24Z</time>
      </trkpt>
      <trkpt lat="39.038420" lon="-5.521260">
        <ele>456.3</ele>
        <time>2010-02-14T09:39:38Z</time>
      </trkpt>
      <trkpt lat="39.037500" lon="-5.519890">
        <ele>474.1</ele>
        <time>2010-02-14T09:40:37Z</time>
      </trkpt>
      <trkpt lat="39.036810" lon="-5.518390">
        <ele>489.4</ele>
        <time>2010-02-14T09:41:26Z</time>
      </trkpt>
      <trkpt lat="39.036320" lon="-5.517810">
        <ele>488.0</ele>
        <time>2010-02-14T09:41:52Z</time>
      </trkpt>
      <trkpt lat="39.035490" lon="-5.516020">
        <ele>455.3</ele>
        <time>2010-02-14T09:43:24Z</time>
      </trkpt>
      <trkpt lat="39.034100" lon="-5.513670">
        <ele>466.9</ele>
        <time>2010-02-14T10:24:08Z</time>
      </trkpt>
      <trkpt lat="39.034200" lon="-5.513890">
        <ele>464.9</ele>
        <time>2010-02-14T10:24:23Z</time>
      </trkpt>
      <trkpt lat="39.033700" lon="-5.512730">
        <ele>468.3</ele>
        <time>2010-02-14T10:25:36Z</time>
      </trkpt>
      <trkpt lat="39.033470" lon="-5.511660">
        <ele>474.5</ele>
        <time>2010-02-14T10:26:49Z</time>
      </trkpt>
      <trkpt lat="39.033250" lon="-5.511140">
        <ele>474.5</ele>
        <time>2010-02-14T10:27:31Z</time>
      </trkpt>
      <trkpt lat="39.032450" lon="-5.509870">
        <ele>487.5</ele>
        <time>2010-02-14T10:29:11Z</time>
      </trkpt>
      <trkpt lat="39.032170" lon="-5.509820">
        <ele>488.5</ele>
        <time>2010-02-14T10:29:31Z</time>
      </trkpt>
      <trkpt lat="39.032400" lon="-5.509800">
        <ele>485.6</ele>
        <time>2010-02-14T10:32:39Z</time>
      </trkpt>
      <trkpt lat="39.032080" lon="-5.508790">
        <ele>483.2</ele>
        <time>2010-02-14T10:33:36Z</time>
      </trkpt>
      <trkpt lat="39.032060" lon="-5.507900">
        <ele>483.7</ele>
        <time>2010-02-14T10:33:51Z</time>
      </trkpt>
      <trkpt lat="39.032210" lon="-5.507000">
        <ele>481.8</ele>
        <time>2010-02-14T10:34:10Z</time>
      </trkpt>
      <trkpt lat="39.032830" lon="-5.506110">
        <ele>474.5</ele>
        <time>2010-02-14T10:38:08Z</time>
      </trkpt>
      <trkpt lat="39.032710" lon="-5.504370">
        <ele>447.6</ele>
        <time>2010-02-14T10:40:03Z</time>
      </trkpt>
      <trkpt lat="39.033130" lon="-5.503950">
        <ele>436.6</ele>
        <time>2010-02-14T10:40:31Z</time>
      </trkpt>
      <trkpt lat="39.033330" lon="-5.503550">
        <ele>434.2</ele>
        <time>2010-02-14T10:40:45Z</time>
      </trkpt>
      <trkpt lat="39.033650" lon="-5.501950">
        <ele>427.9</ele>
        <time>2010-02-14T10:43:17Z</time>
      </trkpt>
      <trkpt lat="39.033550" lon="-5.501620">
        <ele>427.5</ele>
        <time>2010-02-14T10:43:27Z</time>
      </trkpt>
      <trkpt lat="39.033450" lon="-5.501500">
        <ele>427.5</ele>
        <time>2010-02-14T10:43:31Z</time>
      </trkpt>
      <trkpt lat="39.033480" lon="-5.501720">
        <ele>427.5</ele>
        <time>2010-02-14T10:57:10Z</time>
      </trkpt>
      <trkpt lat="39.033210" lon="-5.501420">
        <ele>429.4</ele>
        <time>2010-02-14T10:57:15Z</time>
      </trkpt>
      <trkpt lat="39.032300" lon="-5.500160">
        <ele>435.6</ele>
        <time>2010-02-14T10:57:35Z</time>
      </trkpt>
      <trkpt lat="39.031950" lon="-5.499830">
        <ele>435.1</ele>
        <time>2010-02-14T10:57:43Z</time>
      </trkpt>
      <trkpt lat="39.031260" lon="-5.498550">
        <ele>415.4</ele>
        <time>2010-02-14T10:58:28Z</time>
      </trkpt>
      <trkpt lat="39.030840" lon="-5.496650">
        <ele>412.1</ele>
        <time>2010-02-14T10:59:00Z</time>
      </trkpt>
      <trkpt lat="39.030540" lon="-5.496060">
        <ele>411.6</ele>
        <time>2010-02-14T10:59:11Z</time>
      </trkpt>
      <trkpt lat="39.030420" lon="-5.494740">
        <ele>411.6</ele>
        <time>2010-02-14T10:59:24Z</time>
      </trkpt>
      <trkpt lat="39.030770" lon="-5.493840">
        <ele>410.1</ele>
        <time>2010-02-14T10:59:32Z</time>
      </trkpt>
      <trkpt lat="39.031430" lon="-5.493130">
        <ele>408.2</ele>
        <time>2010-02-14T10:59:42Z</time>
      </trkpt>
      <trkpt lat="39.031730" lon="-5.492960">
        <ele>407.2</ele>
        <time>2010-02-14T10:59:50Z</time>
      </trkpt>
      <trkpt lat="39.032560" lon="-5.491190">
        <ele>425.0</ele>
        <time>2010-02-14T11:00:07Z</time>
      </trkpt>
      <trkpt lat="39.033110" lon="-5.490990">
        <ele>437.5</ele>
        <time>2010-02-14T11:01:51Z</time>
      </trkpt>
      <trkpt lat="39.033210" lon="-5.490740">
        <ele>438.5</ele>
        <time>2010-02-14T11:02:05Z</time>
      </trkpt>
      <trkpt lat="39.032680" lon="-5.489540">
        <ele>438.0</ele>
        <time>2010-02-14T11:03:19Z</time>
      </trkpt>
      <trkpt lat="39.032970" lon="-5.488160">
        <ele>441.9</ele>
        <time>2010-02-14T11:03:48Z</time>
      </trkpt>
      <trkpt lat="39.032680" lon="-5.486780">
        <ele>440.4</ele>
        <time>2010-02-14T11:05:24Z</time>
      </trkpt>
      <trkpt lat="39.033140" lon="-5.484830">
        <ele>438.5</ele>
        <time>2010-02-14T11:06:09Z</time>
      </trkpt>
      <trkpt lat="39.034940" lon="-5.483550">
        <ele>425.0</ele>
        <time>2010-02-14T11:15:56Z</time>
      </trkpt>
      <trkpt lat="39.035330" lon="-5.483060">
        <ele>420.2</ele>
        <time>2010-02-14T11:18:25Z</time>
      </trkpt>
      <trkpt lat="39.036660" lon="-5.482150">
        <ele>408.7</ele>
        <time>2010-02-14T11:18:38Z</time>
      </trkpt>
      <trkpt lat="39.038440" lon="-5.481270">
        <ele>397.6</ele>
        <time>2010-02-14T11:18:54Z</time>
      </trkpt>
      <trkpt lat="39.043860" lon="-5.480860">
        <ele>412.1</ele>
        <time>2010-02-14T11:19:29Z</time>
      </trkpt>
      <trkpt lat="39.045930" lon="-5.480090">
        <ele>416.4</ele>
        <time>2010-02-14T11:19:56Z</time>
      </trkpt>
      <trkpt lat="39.045920" lon="-5.479920">
        <ele>418.3</ele>
        <time>2010-02-14T11:20:03Z</time>
      </trkpt>
      <trkpt lat="39.044420" lon="-5.480170">
        <ele>411.6</ele>
        <time>2010-02-14T11:21:16Z</time>
      </trkpt>
      <trkpt lat="39.043440" lon="-5.479130">
        <ele>421.7</ele>
        <time>2010-02-14T11:22:59Z</time>
      </trkpt>
      <trkpt lat="39.041290" lon="-5.477440">
        <ele>438.0</ele>
        <time>2010-02-14T11:23:39Z</time>
      </trkpt>
      <trkpt lat="39.040500" lon="-5.476210">
        <ele>427.9</ele>
        <time>2010-02-14T11:23:56Z</time>
      </trkpt>
      <trkpt lat="39.038970" lon="-5.473340">
        <ele>415.4</ele>
        <time>2010-02-14T11:24:34Z</time>
      </trkpt>
      <trkpt lat="39.037530" lon="-5.471490">
        <ele>415.9</ele>
        <time>2010-02-14T11:25:09Z</time>
      </trkpt>
      <trkpt lat="39.036840" lon="-5.470380">
        <ele>405.8</ele>
        <time>2010-02-14T11:25:25Z</time>
      </trkpt>
      <trkpt lat="39.034940" lon="-5.468120">
        <ele>421.7</ele>
        <time>2010-02-14T11:27:37Z</time>
      </trkpt>
      <trkpt lat="39.033150" lon="-5.463530">
        <ele>399.1</ele>
        <time>2010-02-14T11:29:57Z</time>
      </trkpt>
      <trkpt lat="39.032680" lon="-5.461120">
        <ele>392.8</ele>
        <time>2010-02-14T11:30:22Z</time>
      </trkpt>
      <trkpt lat="39.032670" lon="-5.460480">
        <ele>390.0</ele>
        <time>2010-02-14T11:30:28Z</time>
      </trkpt>
      <trkpt lat="39.033250" lon="-5.457580">
        <ele>413.0</ele>
        <time>2010-02-14T11:30:57Z</time>
      </trkpt>
      <trkpt lat="39.034020" lon="-5.454800">
        <ele>413.5</ele>
        <time>2010-02-14T11:31:24Z</time>
      </trkpt>
      <trkpt lat="39.034630" lon="-5.454010">
        <ele>410.1</ele>
        <time>2010-02-14T11:31:35Z</time>
      </trkpt>
      <trkpt lat="39.035000" lon="-5.453100">
        <ele>404.9</ele>
        <time>2010-02-14T11:31:46Z</time>
      </trkpt>
      <trkpt lat="39.035790" lon="-5.451800">
        <ele>402.9</ele>
        <time>2010-02-14T11:32:08Z</time>
      </trkpt>
      <trkpt lat="39.036140" lon="-5.449250">
        <ele>392.4</ele>
        <time>2010-02-14T11:32:32Z</time>
      </trkpt>
      <trkpt lat="39.036590" lon="-5.448430">
        <ele>386.1</ele>
        <time>2010-02-14T11:32:42Z</time>
      </trkpt>
      <trkpt lat="39.036620" lon="-5.447960">
        <ele>383.7</ele>
        <time>2010-02-14T11:32:48Z</time>
      </trkpt>
      <trkpt lat="39.036500" lon="-5.447700">
        <ele>381.8</ele>
        <time>2010-02-14T11:32:52Z</time>
      </trkpt>
      <trkpt lat="39.036600" lon="-5.446200">
        <ele>381.3</ele>
        <time>2010-02-14T11:33:14Z</time>
      </trkpt>
      <trkpt lat="39.037300" lon="-5.445540">
        <ele>379.4</ele>
        <time>2010-02-14T11:33:30Z</time>
      </trkpt>
      <trkpt lat="39.037390" lon="-5.445280">
        <ele>379.4</ele>
        <time>2010-02-14T11:33:34Z</time>
      </trkpt>
      <trkpt lat="39.037300" lon="-5.440820">
        <ele>386.6</ele>
        <time>2010-02-14T11:34:28Z</time>
      </trkpt>
      <trkpt lat="39.037140" lon="-5.439330">
        <ele>390.0</ele>
        <time>2010-02-14T11:34:44Z</time>
      </trkpt>
      <trkpt lat="39.035320" lon="-5.430900">
        <ele>383.7</ele>
        <time>2010-02-14T11:36:00Z</time>
      </trkpt>
      <trkpt lat="39.035450" lon="-5.429350">
        <ele>384.7</ele>
        <time>2010-02-14T11:36:52Z</time>
      </trkpt>
      <trkpt lat="39.035180" lon="-5.427790">
        <ele>379.4</ele>
        <time>2010-02-14T11:37:06Z</time>
      </trkpt>
      <trkpt lat="39.034920" lon="-5.426920">
        <ele>377.0</ele>
        <time>2010-02-14T11:37:15Z</time>
      </trkpt>
      <trkpt lat="39.034110" lon="-5.425960">
        <ele>381.8</ele>
        <time>2010-02-14T11:37:28Z</time>
      </trkpt>
      <trkpt lat="39.033180" lon="-5.425670">
        <ele>381.3</ele>
        <time>2010-02-14T11:37:38Z</time>
      </trkpt>
      <trkpt lat="39.032400" lon="-5.424940">
        <ele>378.9</ele>
        <time>2010-02-14T11:37:48Z</time>
      </trkpt>
      <trkpt lat="39.030420" lon="-5.422670">
        <ele>371.7</ele>
        <time>2010-02-14T11:38:19Z</time>
      </trkpt>
      <trkpt lat="39.029580" lon="-5.421340">
        <ele>375.5</ele>
        <time>2010-02-14T11:38:35Z</time>
      </trkpt>
      <trkpt lat="39.027020" lon="-5.419320">
        <ele>353.4</ele>
        <time>2010-02-14T11:40:59Z</time>
      </trkpt>
      <trkpt lat="39.026720" lon="-5.419210">
        <ele>351.5</ele>
        <time>2010-02-14T11:41:05Z</time>
      </trkpt>
      <trkpt lat="39.026450" lon="-5.419340">
        <ele>345.2</ele>
        <time>2010-02-14T11:41:10Z</time>
      </trkpt>
      <trkpt lat="39.024960" lon="-5.420510">
        <ele>325.1</ele>
        <time>2010-02-14T11:41:36Z</time>
      </trkpt>
      <trkpt lat="39.024160" lon="-5.420410">
        <ele>320.7</ele>
        <time>2010-02-14T11:41:47Z</time>
      </trkpt>
      <trkpt lat="39.022600" lon="-5.419340">
        <ele>321.2</ele>
        <time>2010-02-14T11:42:37Z</time>
      </trkpt>
      <trkpt lat="39.021220" lon="-5.417210">
        <ele>332.3</ele>
        <time>2010-02-14T11:43:03Z</time>
      </trkpt>
      <trkpt lat="39.020720" lon="-5.415630">
        <ele>329.9</ele>
        <time>2010-02-14T11:43:17Z</time>
      </trkpt>
      <trkpt lat="39.020610" lon="-5.414250">
        <ele>326.0</ele>
        <time>2010-02-14T11:43:30Z</time>
      </trkpt>
      <trkpt lat="39.020630" lon="-5.413070">
        <ele>326.0</ele>
        <time>2010-02-14T11:43:45Z</time>
      </trkpt>
      <trkpt lat="39.020140" lon="-5.411130">
        <ele>328.9</ele>
        <time>2010-02-14T11:44:32Z</time>
      </trkpt>
      <trkpt lat="39.020230" lon="-5.411230">
        <ele>328.4</ele>
        <time>2010-02-14T11:44:49Z</time>
      </trkpt>
      <trkpt lat="39.019340" lon="-5.409630">
        <ele>327.9</ele>
        <time>2010-02-14T11:45:37Z</time>
      </trkpt>
      <trkpt lat="39.019460" lon="-5.407940">
        <ele>325.1</ele>
        <time>2010-02-14T11:46:27Z</time>
      </trkpt>
      <trkpt lat="39.019450" lon="-5.406680">
        <ele>329.4</ele>
        <time>2010-02-14T11:46:39Z</time>
      </trkpt>
      <trkpt lat="39.019250" lon="-5.404050">
        <ele>338.1</ele>
        <time>2010-02-14T11:47:07Z</time>
      </trkpt>
      <trkpt lat="39.018900" lon="-5.402670">
        <ele>336.1</ele>
        <time>2010-02-14T11:47:20Z</time>
      </trkpt>
      <trkpt lat="39.018280" lon="-5.401570">
        <ele>337.6</ele>
        <time>2010-02-14T11:47:31Z</time>
      </trkpt>
      <trkpt lat="39.017200" lon="-5.400200">
        <ele>340.0</ele>
        <time>2010-02-14T11:47:47Z</time>
      </trkpt>
      <trkpt lat="39.016350" lon="-5.399550">
        <ele>341.4</ele>
        <time>2010-02-14T11:48:00Z</time>
      </trkpt>
      <trkpt lat="39.014220" lon="-5.399040">
        <ele>337.6</ele>
        <time>2010-02-14T11:48:26Z</time>
      </trkpt>
      <trkpt lat="39.013380" lon="-5.398510">
        <ele>335.6</ele>
        <time>2010-02-14T11:48:38Z</time>
      </trkpt>
      <trkpt lat="39.013090" lon="-5.398250">
        <ele>337.1</ele>
        <time>2010-02-14T11:48:42Z</time>
      </trkpt>
      <trkpt lat="39.012310" lon="-5.396940">
        <ele>340.9</ele>
        <time>2010-02-14T11:48:55Z</time>
      </trkpt>
      <trkpt lat="39.012000" lon="-5.395460">
        <ele>343.8</ele>
        <time>2010-02-14T11:49:06Z</time>
      </trkpt>
      <trkpt lat="39.011920" lon="-5.394680">
        <ele>339.5</ele>
        <time>2010-02-14T11:49:12Z</time>
      </trkpt>
      <trkpt lat="39.012050" lon="-5.394200">
        <ele>336.6</ele>
        <time>2010-02-14T11:49:18Z</time>
      </trkpt>
      <trkpt lat="39.013640" lon="-5.392270">
        <ele>333.7</ele>
        <time>2010-02-14T11:49:48Z</time>
      </trkpt>
      <trkpt lat="39.013820" lon="-5.390940">
        <ele>340.0</ele>
        <time>2010-02-14T11:50:20Z</time>
      </trkpt>
      <trkpt lat="39.014510" lon="-5.389830">
        <ele>350.6</ele>
        <time>2010-02-14T11:50:32Z</time>
      </trkpt>
      <trkpt lat="39.015200" lon="-5.388370">
        <ele>357.7</ele>
        <time>2010-02-14T11:50:47Z</time>
      </trkpt>
      <trkpt lat="39.016160" lon="-5.384650">
        <ele>368.8</ele>
        <time>2010-02-14T11:51:21Z</time>
      </trkpt>
      <trkpt lat="39.017630" lon="-5.383130">
        <ele>375.1</ele>
        <time>2010-02-14T11:51:41Z</time>
      </trkpt>
      <trkpt lat="39.017860" lon="-5.382460">
        <ele>375.1</ele>
        <time>2010-02-14T11:51:48Z</time>
      </trkpt>
      <trkpt lat="39.017140" lon="-5.380480">
        <ele>375.5</ele>
        <time>2010-02-14T11:52:07Z</time>
      </trkpt>
      <trkpt lat="39.016160" lon="-5.376400">
        <ele>382.2</ele>
        <time>2010-02-14T11:52:48Z</time>
      </trkpt>
      <trkpt lat="39.015300" lon="-5.374040">
        <ele>385.1</ele>
        <time>2010-02-14T11:53:10Z</time>
      </trkpt>
      <trkpt lat="39.014660" lon="-5.371330">
        <ele>391.9</ele>
        <time>2010-02-14T11:53:35Z</time>
      </trkpt>
      <trkpt lat="39.011650" lon="-5.366080">
        <ele>403.9</ele>
        <time>2010-02-14T11:54:29Z</time>
      </trkpt>
      <trkpt lat="39.010710" lon="-5.364300">
        <ele>402.9</ele>
        <time>2010-02-14T11:54:46Z</time>
      </trkpt>
      <trkpt lat="39.009210" lon="-5.360870">
        <ele>402.5</ele>
        <time>2010-02-14T11:55:20Z</time>
      </trkpt>
      <trkpt lat="39.007950" lon="-5.358810">
        <ele>408.2</ele>
        <time>2010-02-14T11:55:45Z</time>
      </trkpt>
      <trkpt lat="39.006150" lon="-5.355520">
        <ele>409.7</ele>
        <time>2010-02-14T11:56:43Z</time>
      </trkpt>
      <trkpt lat="39.005500" lon="-5.352190">
        <ele>428.9</ele>
        <time>2010-02-14T11:57:16Z</time>
      </trkpt>
      <trkpt lat="39.005300" lon="-5.350670">
        <ele>425.5</ele>
        <time>2010-02-14T11:57:37Z</time>
      </trkpt>
      <trkpt lat="39.005590" lon="-5.347310">
        <ele>435.6</ele>
        <time>2010-02-14T11:58:01Z</time>
      </trkpt>
      <trkpt lat="39.005210" lon="-5.345900">
        <ele>439.5</ele>
        <time>2010-02-14T11:58:12Z</time>
      </trkpt>
      <trkpt lat="39.004610" lon="-5.344690">
        <ele>436.1</ele>
        <time>2010-02-14T11:58:22Z</time>
      </trkpt>
      <trkpt lat="39.003740" lon="-5.342300">
        <ele>431.3</ele>
        <time>2010-02-14T11:58:44Z</time>
      </trkpt>
      <trkpt lat="39.003820" lon="-5.342660">
        <ele>431.8</ele>
        <time>2010-02-14T11:58:52Z</time>
      </trkpt>
      <trkpt lat="39.003890" lon="-5.342860">
        <ele>429.9</ele>
        <time>2010-02-14T11:58:59Z</time>
      </trkpt>
      <trkpt lat="39.000880" lon="-5.333180">
        <ele>436.6</ele>
        <time>2010-02-14T12:01:55Z</time>
      </trkpt>
      <trkpt lat="39.000240" lon="-5.327510">
        <ele>463.5</ele>
        <time>2010-02-14T12:03:31Z</time>
      </trkpt>
      <trkpt lat="39.000020" lon="-5.326100">
        <ele>466.9</ele>
        <time>2010-02-14T12:03:45Z</time>
      </trkpt>
      <trkpt lat="38.999770" lon="-5.325190">
        <ele>463.5</ele>
        <time>2010-02-14T12:03:53Z</time>
      </trkpt>
      <trkpt lat="38.999200" lon="-5.324520">
        <ele>457.2</ele>
        <time>2010-02-14T12:04:02Z</time>
      </trkpt>
      <trkpt lat="38.999080" lon="-5.324210">
        <ele>452.4</ele>
        <time>2010-02-14T12:04:06Z</time>
      </trkpt>
      <trkpt lat="38.999100" lon="-5.323630">
        <ele>450.0</ele>
        <time>2010-02-14T12:04:13Z</time>
      </trkpt>
      <trkpt lat="38.998420" lon="-5.321070">
        <ele>445.7</ele>
        <time>2010-02-14T12:04:47Z</time>
      </trkpt>
      <trkpt lat="38.998080" lon="-5.320420">
        <ele>443.8</ele>
        <time>2010-02-14T12:07:23Z</time>
      </trkpt>
      <trkpt lat="38.997160" lon="-5.319190">
        <ele>452.9</ele>
        <time>2010-02-14T12:07:54Z</time>
      </trkpt>
      <trkpt lat="38.996590" lon="-5.318100">
        <ele>455.3</ele>
        <time>2010-02-14T12:08:06Z</time>
      </trkpt>
      <trkpt lat="38.995990" lon="-5.316530">
        <ele>458.7</ele>
        <time>2010-02-14T12:08:22Z</time>
      </trkpt>
      <trkpt lat="38.994650" lon="-5.310320">
        <ele>466.9</ele>
        <time>2010-02-14T12:09:20Z</time>
      </trkpt>
      <trkpt lat="38.993740" lon="-5.307330">
        <ele>465.4</ele>
        <time>2010-02-14T12:09:48Z</time>
      </trkpt>
      <trkpt lat="38.993370" lon="-5.306520">
        <ele>464.9</ele>
        <time>2010-02-14T12:10:17Z</time>
      </trkpt>
      <trkpt lat="38.993080" lon="-5.306180">
        <ele>464.5</ele>
        <time>2010-02-14T12:10:24Z</time>
      </trkpt>
      <trkpt lat="38.989830" lon="-5.303290">
        <ele>469.3</ele>
        <time>2010-02-14T12:11:06Z</time>
      </trkpt>
      <trkpt lat="38.989220" lon="-5.302530">
        <ele>475.5</ele>
        <time>2010-02-14T12:11:20Z</time>
      </trkpt>
      <trkpt lat="38.988710" lon="-5.302190">
        <ele>476.5</ele>
        <time>2010-02-14T12:12:40Z</time>
      </trkpt>
      <trkpt lat="38.988810" lon="-5.301700">
        <ele>477.4</ele>
        <time>2010-02-14T12:15:24Z</time>
      </trkpt>
      <trkpt lat="38.986620" lon="-5.299600">
        <ele>497.1</ele>
        <time>2010-02-14T12:16:37Z</time>
      </trkpt>
      <trkpt lat="38.986410" lon="-5.299210">
        <ele>500.5</ele>
        <time>2010-02-14T12:16:50Z</time>
      </trkpt>
      <trkpt lat="38.986200" lon="-5.298250">
        <ele>501.0</ele>
        <time>2010-02-14T12:17:00Z</time>
      </trkpt>
      <trkpt lat="38.985990" lon="-5.296350">
        <ele>507.2</ele>
        <time>2010-02-14T12:17:39Z</time>
      </trkpt>
      <trkpt lat="38.985580" lon="-5.294090">
        <ele>507.2</ele>
        <time>2010-02-14T12:17:54Z</time>
      </trkpt>
      <trkpt lat="38.985120" lon="-5.293310">
        <ele>508.7</ele>
        <time>2010-02-14T12:18:00Z</time>
      </trkpt>
      <trkpt lat="38.983260" lon="-5.291130">
        <ele>506.8</ele>
        <time>2010-02-14T12:18:20Z</time>
      </trkpt>
      <trkpt lat="38.982480" lon="-5.289600">
        <ele>506.3</ele>
        <time>2010-02-14T12:18:30Z</time>
      </trkpt>
      <trkpt lat="38.981530" lon="-5.288550">
        <ele>506.3</ele>
        <time>2010-02-14T12:18:43Z</time>
      </trkpt>
      <trkpt lat="38.981600" lon="-5.288630">
        <ele>505.8</ele>
        <time>2010-02-14T12:18:54Z</time>
      </trkpt>
      <trkpt lat="38.981410" lon="-5.288540">
        <ele>505.8</ele>
        <time>2010-02-14T12:19:13Z</time>
      </trkpt>
      <trkpt lat="38.980750" lon="-5.287040">
        <ele>493.3</ele>
        <time>2010-02-14T12:21:41Z</time>
      </trkpt>
      <trkpt lat="38.980400" lon="-5.286770">
        <ele>491.9</ele>
        <time>2010-02-14T12:22:27Z</time>
      </trkpt>
      <trkpt lat="38.979910" lon="-5.284180">
        <ele>474.1</ele>
        <time>2010-02-14T12:23:18Z</time>
      </trkpt>
      <trkpt lat="38.979010" lon="-5.282280">
        <ele>468.8</ele>
        <time>2010-02-14T12:23:37Z</time>
      </trkpt>
      <trkpt lat="38.977790" lon="-5.280970">
        <ele>464.0</ele>
        <time>2010-02-14T12:24:12Z</time>
      </trkpt>
      <trkpt lat="38.977250" lon="-5.279450">
        <ele>464.0</ele>
        <time>2010-02-14T12:25:17Z</time>
      </trkpt>
      <trkpt lat="38.977260" lon="-5.278830">
        <ele>464.5</ele>
        <time>2010-02-14T12:25:23Z</time>
      </trkpt>
      <trkpt lat="38.977490" lon="-5.278130">
        <ele>464.5</ele>
        <time>2010-02-14T12:25:29Z</time>
      </trkpt>
      <trkpt lat="38.977410" lon="-5.277590">
        <ele>465.9</ele>
        <time>2010-02-14T12:25:35Z</time>
      </trkpt>
      <trkpt lat="38.977000" lon="-5.277010">
        <ele>467.8</ele>
        <time>2010-02-14T12:27:24Z</time>
      </trkpt>
      <trkpt lat="38.976810" lon="-5.275990">
        <ele>468.3</ele>
        <time>2010-02-14T12:27:36Z</time>
      </trkpt>
      <trkpt lat="38.976790" lon="-5.274330">
        <ele>470.7</ele>
        <time>2010-02-14T12:27:56Z</time>
      </trkpt>
      <trkpt lat="38.976290" lon="-5.273070">
        <ele>477.9</ele>
        <time>2010-02-14T12:28:14Z</time>
      </trkpt>
      <trkpt lat="38.976220" lon="-5.272210">
        <ele>480.8</ele>
        <time>2010-02-14T12:28:25Z</time>
      </trkpt>
      <trkpt lat="38.976410" lon="-5.270370">
        <ele>483.7</ele>
        <time>2010-02-14T12:29:16Z</time>
      </trkpt>
      <trkpt lat="38.976230" lon="-5.269370">
        <ele>489.9</ele>
        <time>2010-02-14T12:32:59Z</time>
      </trkpt>
      <trkpt lat="38.976460" lon="-5.269240">
        <ele>490.9</ele>
        <time>2010-02-14T12:33:11Z</time>
      </trkpt>
      <trkpt lat="38.977340" lon="-5.267380">
        <ele>496.7</ele>
        <time>2010-02-14T12:36:11Z</time>
      </trkpt>
      <trkpt lat="38.977760" lon="-5.266800">
        <ele>508.2</ele>
        <time>2010-02-14T12:36:36Z</time>
      </trkpt>
      <trkpt lat="38.977930" lon="-5.266090">
        <ele>514.9</ele>
        <time>2010-02-14T12:36:58Z</time>
      </trkpt>
      <trkpt lat="38.978640" lon="-5.264710">
        <ele>538.5</ele>
        <time>2010-02-14T12:43:38Z</time>
      </trkpt>
      <trkpt lat="38.978621" lon="-5.264185">
        <ele>551.0</ele>
        <time>2010-02-14T12:44:09Z</time>
      </trkpt>
      <trkpt lat="38.978550" lon="-5.263720">
        <ele>563.0</ele>
        <time>2010-02-14T12:45:12Z</time>
      </trkpt>
      <trkpt lat="38.978560" lon="-5.263420">
        <ele>563.9</ele>
        <time>2010-02-14T12:46:48Z</time>
      </trkpt>
      <trkpt lat="38.978580" lon="-5.263560">
        <ele>563.9</ele>
        <time>2010-02-14T12:47:17Z</time>
      </trkpt>
      <trkpt lat="38.978425" lon="-5.263163">
        <ele>586.1</ele>
        <time>2010-02-14T12:59:04Z</time>
      </trkpt>
      <trkpt lat="38.977805" lon="-5.259818">
        <ele>584.6</ele>
        <time>2010-02-14T12:59:52Z</time>
      </trkpt>
      <trkpt lat="38.977866" lon="-5.258527">
        <ele>585.1</ele>
        <time>2010-02-14T13:00:12Z</time>
      </trkpt>
      <trkpt lat="38.977839" lon="-5.259912">
        <ele>583.7</ele>
        <time>2010-02-14T13:05:05Z</time>
      </trkpt>
      <trkpt lat="38.978290" lon="-5.262697">
        <ele>587.5</ele>
        <time>2010-02-14T13:07:17Z</time>
      </trkpt>
      <trkpt lat="38.978498" lon="-5.263119">
        <ele>586.1</ele>
        <time>2010-02-14T13:07:41Z</time>
      </trkpt>
      <trkpt lat="38.978690" lon="-5.263250">
        <ele>583.7</ele>
        <time>2010-02-14T13:07:49Z</time>
      </trkpt>
      <trkpt lat="38.979080" lon="-5.263810">
        <ele>583.7</ele>
        <time>2010-02-14T13:08:28Z</time>
      </trkpt>
      <trkpt lat="38.979150" lon="-5.263990">
        <ele>586.1</ele>
        <time>2010-02-14T13:08:41Z</time>
      </trkpt>
      <trkpt lat="38.979110" lon="-5.264080">
        <ele>592.8</ele>
        <time>2010-02-14T13:08:49Z</time>
      </trkpt>
      <trkpt lat="38.979150" lon="-5.264010">
        <ele>589.4</ele>
        <time>2010-02-14T13:08:56Z</time>
      </trkpt>
      <trkpt lat="38.979442" lon="-5.264627">
        <ele>584.1</ele>
        <time>2010-02-14T13:12:59Z</time>
      </trkpt>
      <trkpt lat="38.979960" lon="-5.266070">
        <ele>615.8</ele>
        <time>2010-02-14T13:16:16Z</time>
      </trkpt>
      <trkpt lat="38.980370" lon="-5.264930">
        <ele>630.3</ele>
        <time>2010-02-14T13:18:24Z</time>
      </trkpt>
      <trkpt lat="38.980625" lon="-5.264988">
        <ele>630.0</ele>
        <time>2010-02-16T19:58:23Z</time>
      </trkpt>
      <trkpt lat="38.980804" lon="-5.265040">
        <ele>630.0</ele>
        <time>2010-02-16T19:58:28Z</time>
      </trkpt>
      <trkpt lat="38.980703" lon="-5.264667">
        <ele>631.0</ele>
        <time>2010-02-16T19:58:32Z</time>
      </trkpt>
      <trkpt lat="38.980498" lon="-5.264106">
        <ele>635.0</ele>
        <time>2010-02-16T19:58:42Z</time>
      </trkpt>
      <trkpt lat="38.980060" lon="-5.262522">
        <ele>640.0</ele>
        <time>2010-02-16T19:58:44Z</time>
      </trkpt>
      <trkpt lat="38.979311" lon="-5.260236">
        <ele>650.0</ele>
        <time>2010-02-16T19:58:45Z</time>
      </trkpt>
      <trkpt lat="38.978903" lon="-5.258930">
        <ele>670.0</ele>
        <time>2010-02-16T19:58:46Z</time>
      </trkpt>
      <trkpt lat="38.978403" lon="-5.256836">
        <ele>688.0</ele>
        <time>2010-02-16T19:58:49Z</time>
      </trkpt>
      <trkpt lat="38.978510" lon="-5.256885">
        <ele>689.0</ele>
        <time>2010-02-16T19:58:50Z</time>
      </trkpt>
      <trkpt lat="38.979011" lon="-5.258979">
        <ele>670.0</ele>
        <time>2010-02-16T19:59:03Z</time>
      </trkpt>
      <trkpt lat="38.979932" lon="-5.261687">
        <ele>660.0</ele>
        <time>2010-02-16T19:59:04Z</time>
      </trkpt>
      <trkpt lat="38.980638" lon="-5.264295">
        <ele>640.0</ele>
        <time>2010-02-16T19:59:05Z</time>
      </trkpt>
      <trkpt lat="38.980848" lon="-5.264625">
        <ele>630.0</ele>
        <time>2010-02-16T19:59:07Z</time>
      </trkpt>
      <trkpt lat="38.980936" lon="-5.263797">
        <ele>620.0</ele>
        <time>2010-02-16T19:59:07Z</time>
      </trkpt>
      <trkpt lat="38.981273" lon="-5.263161">
        <ele>600.0</ele>
        <time>2010-02-16T19:59:08Z</time>
      </trkpt>
      <trkpt lat="38.981767" lon="-5.261838">
        <ele>580.0</ele>
        <time>2010-02-16T19:59:10Z</time>
      </trkpt>
      <trkpt lat="38.982117" lon="-5.260556">
        <ele>570.0</ele>
        <time>2010-02-16T19:59:10Z</time>
      </trkpt>
      <trkpt lat="38.982528" lon="-5.259784">
        <ele>565.0</ele>
        <time>2010-02-16T19:59:11Z</time>
      </trkpt>
      <trkpt lat="38.982679" lon="-5.259419">
        <ele>565.0</ele>
        <time>2010-02-16T19:59:12Z</time>
      </trkpt>
    </trkseg>
  </trk></gpx>